Time;durP1;ratioP1;P1;durP2;ratioP2;P2;SDS_P1;SDS_P2;PMS_P1;PMS_P2;Temp;Humidity;BMP_temperature;BMP_pressure;BME280_temperature;BME280_humidity;BME280_pressure;Samples;Min_cycle;Max_cycle;Signal;HPM_P1;HPM_P2
2023/12/04 00:00:56;;;;;;;10.95;7.43;;;-2.50;99.90;;;;;;493776;241;27412;-74
2023/12/04 00:02:57;;;;;;;13.90;7.75;;;-2.50;99.90;;;;;;494031;241;27948;-72
2023/12/04 00:04:58;;;;;;;10.70;7.25;;;-2.50;99.90;;;;;;493989;241;28069;-71
2023/12/04 00:07:00;;;;;;;10.70;7.37;;;-2.50;99.90;;;;;;493969;241;27537;-71
2023/12/04 00:09:01;;;;;;;11.12;7.40;;;-2.60;99.90;;;;;;493974;241;27393;-72
2023/12/04 00:11:03;;;;;;;13.02;8.20;;;-2.60;99.90;;;;;;494018;241;27313;-72
2023/12/04 00:13:03;;;;;;;11.10;7.47;;;-2.70;99.90;;;;;;493956;241;27515;-72
2023/12/04 00:15:05;;;;;;;15.65;8.50;;;-2.70;99.90;;;;;;494069;241;27518;-72
2023/12/04 00:17:06;;;;;;;12.27;7.90;;;-2.70;99.90;;;;;;494036;241;27896;-71
2023/12/04 00:19:07;;;;;;;15.45;8.82;;;-2.70;99.90;;;;;;493952;241;27801;-72
2023/12/04 00:21:08;;;;;;;10.10;7.70;;;-2.80;99.90;;;;;;493983;241;27694;-72
2023/12/04 00:23:11;;;;;;;12.75;7.90;;;;;;;;;;494012;241;27559;-71
2023/12/04 00:25:12;;;;;;;14.15;8.35;;;-2.90;99.90;;;;;;494067;237;26554;-74
2023/12/04 00:27:13;;;;;;;13.35;7.47;;;-2.80;99.90;;;;;;494072;241;27881;-72
2023/12/04 00:29:15;;;;;;;14.95;8.07;;;-2.80;99.90;;;;;;493988;241;28979;-72
2023/12/04 00:31:16;;;;;;;12.90;7.90;;;-2.70;99.90;;;;;;493979;241;27440;-72
2023/12/04 00:33:17;;;;;;;10.40;7.45;;;-2.70;99.90;;;;;;493970;241;27211;-72
2023/12/04 00:35:20;;;;;;;9.38;7.28;;;;;;;;;;494008;241;27085;-71
2023/12/04 00:37:21;;;;;;;10.27;7.15;;;-2.70;99.90;;;;;;494014;241;27102;-71
2023/12/04 00:39:22;;;;;;;9.00;7.25;;;-2.70;99.90;;;;;;494004;241;27222;-72
2023/12/04 00:41:24;;;;;;;7.80;6.65;;;-2.70;99.90;;;;;;494057;241;27424;-72
2023/12/04 00:43:25;;;;;;;10.98;8.07;;;-2.70;99.90;;;;;;493930;241;27457;-74
2023/12/04 00:45:26;;;;;;;11.98;8.43;;;-2.70;99.90;;;;;;493983;241;27442;-72
2023/12/04 00:47:27;;;;;;;12.18;7.55;;;-2.70;99.90;;;;;;493986;241;27461;-72
2023/12/04 00:49:28;;;;;;;14.60;7.30;;;-2.70;99.90;;;;;;494043;241;27172;-74
2023/12/04 00:51:30;;;;;;;8.88;6.55;;;-2.70;99.90;;;;;;494051;237;27775;-72
2023/12/04 00:53:31;;;;;;;13.75;8.90;;;-2.80;99.90;;;;;;494035;241;27842;-72
2023/12/04 00:55:32;;;;;;;11.12;7.55;;;-3.00;99.90;;;;;;494077;241;27138;-72
2023/12/04 00:57:33;;;;;;;9.98;7.57;;;-3.10;99.90;;;;;;494034;241;27476;-72
2023/12/04 00:59:35;;;;;;;11.02;7.30;;;-3.10;99.90;;;;;;494035;241;27168;-73
2023/12/04 01:01:36;;;;;;;13.98;9.05;;;-3.10;99.90;;;;;;493992;241;27229;-72
2023/12/04 01:03:37;;;;;;;12.65;8.52;;;-3.10;99.90;;;;;;493979;241;27109;-72
2023/12/04 01:05:38;;;;;;;12.40;7.35;;;-3.00;99.90;;;;;;494045;237;27128;-72
2023/12/04 01:07:40;;;;;;;13.62;8.65;;;-3.00;99.90;;;;;;494045;241;27812;-71
2023/12/04 01:09:41;;;;;;;14.70;9.23;;;-3.10;99.90;;;;;;494010;241;27891;-72
2023/12/04 01:11:42;;;;;;;12.27;7.62;;;-3.10;99.90;;;;;;494033;241;27317;-72
2023/12/04 01:13:43;;;;;;;14.40;8.80;;;-3.10;99.90;;;;;;493935;241;27188;-72
2023/12/04 01:15:46;;;;;;;14.60;9.02;;;-3.00;99.90;;;;;;493955;241;27173;-71
2023/12/04 01:17:46;;;;;;;12.57;8.18;;;-3.00;99.90;;;;;;494039;241;27145;-72
2023/12/04 01:19:47;;;;;;;12.07;7.85;;;-2.90;99.90;;;;;;494066;241;27251;-72
2023/12/04 01:21:48;;;;;;;11.27;7.65;;;-2.90;99.90;;;;;;494050;241;27217;-71
2023/12/04 01:23:50;;;;;;;13.65;8.23;;;-2.90;99.90;;;;;;494054;241;27826;-73
2023/12/04 01:25:51;;;;;;;14.48;8.05;;;-2.90;99.90;;;;;;494103;241;28035;-73
2023/12/04 01:27:52;;;;;;;12.18;8.20;;;-2.90;99.90;;;;;;494034;241;27335;-71
2023/12/04 01:29:53;;;;;;;14.02;8.20;;;-2.90;99.90;;;;;;493994;241;27277;-72
2023/12/04 01:31:55;;;;;;;10.00;7.10;;;-2.90;99.90;;;;;;494030;241;27129;-71
2023/12/04 01:33:56;;;;;;;10.20;7.10;;;-2.90;99.90;;;;;;493980;241;27195;-71
2023/12/04 01:35:57;;;;;;;12.27;6.95;;;-2.90;99.90;;;;;;494035;241;28418;-73
2023/12/04 01:37:59;;;;;;;11.27;7.78;;;-2.90;99.90;;;;;;493995;241;27350;-72
2023/12/04 01:40:00;;;;;;;12.82;8.05;;;-3.00;99.90;;;;;;494002;241;27774;-72
2023/12/04 01:42:01;;;;;;;11.63;8.50;;;-3.10;99.90;;;;;;494007;241;27550;-72
2023/12/04 01:44:02;;;;;;;12.75;7.60;;;-3.20;99.90;;;;;;493986;237;27252;-72
2023/12/04 01:46:04;;;;;;;11.80;7.82;;;-3.20;99.90;;;;;;494000;241;27393;-73
2023/12/04 01:48:05;;;;;;;10.35;7.47;;;-3.20;99.90;;;;;;493978;241;27453;-71
2023/12/04 01:50:06;;;;;;;10.65;7.55;;;-3.20;99.90;;;;;;494052;241;27603;-72
2023/12/04 01:52:07;;;;;;;15.02;7.78;;;-3.10;99.90;;;;;;493909;241;27314;-74
2023/12/04 01:54:09;;;;;;;10.48;6.60;;;-3.10;99.90;;;;;;493970;241;27610;-72
2023/12/04 01:56:10;;;;;;;9.20;7.00;;;-3.20;99.90;;;;;;493932;241;27721;-72
2023/12/04 01:58:11;;;;;;;11.02;6.35;;;-3.20;99.90;;;;;;493977;241;27716;-72
2023/12/04 02:00:12;;;;;;;11.60;7.00;;;-3.10;99.90;;;;;;493980;241;27056;-72
2023/12/04 02:02:14;;;;;;;9.75;6.15;;;-3.20;99.90;;;;;;494062;241;27303;-74
2023/12/04 02:04:16;;;;;;;11.43;7.07;;;;;;;;;;494049;241;27295;-72
2023/12/04 02:06:20;;;;;;;11.10;7.72;;;-3.20;99.90;;;;;;494043;241;28167;-71
2023/12/04 02:08:19;;;;;;;10.95;6.95;;;-3.20;99.90;;;;;;493884;241;27327;-71
2023/12/04 02:10:20;;;;;;;11.20;8.18;;;-3.20;99.90;;;;;;494074;241;27169;-73
2023/12/04 02:12:21;;;;;;;8.52;6.40;;;-3.20;99.90;;;;;;494060;241;27343;-72
2023/12/04 02:14:22;;;;;;;8.18;5.78;;;-3.20;99.90;;;;;;494064;237;27385;-72
2023/12/04 02:16:24;;;;;;;10.98;7.05;;;-3.20;99.90;;;;;;494080;241;27180;-73
2023/12/04 02:18:25;;;;;;;11.75;7.00;;;-3.20;99.90;;;;;;494079;241;27324;-72
2023/12/04 02:20:26;;;;;;;10.98;7.30;;;-3.20;99.90;;;;;;494067;241;27816;-72
2023/12/04 02:22:27;;;;;;;9.70;7.15;;;-3.30;99.90;;;;;;493989;237;27592;-72
2023/12/04 02:24:31;;;;;;;10.60;6.82;;;-3.30;99.90;;;;;;493957;241;27408;-71
2023/12/04 02:26:30;;;;;;;6.95;5.57;;;-3.20;99.90;;;;;;493927;241;27371;-74
2023/12/04 02:28:31;;;;;;;9.52;5.37;;;-3.10;99.90;;;;;;494004;239;27349;-72
2023/12/04 02:30:34;;;;;;;7.15;5.70;;;-2.90;99.90;;;;;;493987;241;27323;-72
2023/12/04 02:32:35;;;;;;;10.23;6.18;;;;;;;;;;493923;241;27462;-71
2023/12/04 02:34:36;;;;;;;6.28;5.10;;;-2.70;99.90;;;;;;494025;241;26711;-73
2023/12/04 02:36:37;;;;;;;7.12;5.07;;;-2.70;99.90;;;;;;494013;241;27316;-72
2023/12/04 02:38:39;;;;;;;9.77;5.47;;;-2.70;99.90;;;;;;494054;241;27395;-72
2023/12/04 02:40:40;;;;;;;8.77;6.50;;;-2.70;99.90;;;;;;494100;241;27281;-72
2023/12/04 02:42:41;;;;;;;11.60;5.50;;;-2.70;99.90;;;;;;494070;241;27240;-72
2023/12/04 02:44:42;;;;;;;8.27;5.50;;;-2.60;99.90;;;;;;494005;241;27310;-73
2023/12/04 02:46:44;;;;;;;8.15;5.30;;;-2.60;99.90;;;;;;494067;241;27418;-71
2023/12/04 02:48:45;;;;;;;8.35;5.95;;;-2.50;99.90;;;;;;493980;241;27918;-72
2023/12/04 02:50:46;;;;;;;11.43;7.30;;;-2.60;99.90;;;;;;494008;241;29020;-73
2023/12/04 02:52:47;;;;;;;11.90;7.37;;;-3.00;99.90;;;;;;493996;241;27254;-72
2023/12/04 02:54:49;;;;;;;9.82;7.10;;;-3.40;99.90;;;;;;494026;241;27190;-72
2023/12/04 02:56:50;;;;;;;13.20;7.32;;;-3.60;99.90;;;;;;493972;239;27316;-71
2023/12/04 02:58:51;;;;;;;11.18;7.55;;;-3.70;99.90;;;;;;493982;241;27172;-72
2023/12/04 03:00:52;;;;;;;10.02;7.20;;;-3.70;99.90;;;;;;494028;241;27087;-73
2023/12/04 03:02:54;;;;;;;11.45;7.70;;;-3.70;99.90;;;;;;493996;241;27162;-71
2023/12/04 03:04:55;;;;;;;10.82;6.65;;;-3.70;99.90;;;;;;493950;241;27575;-71
2023/12/04 03:06:57;;;;;;;13.05;7.45;;;;;;;;;;494019;237;28675;-71
2023/12/04 03:09:00;;;;;;;12.05;7.78;;;;;;;;;;494013;241;26710;-71
2023/12/04 03:11:01;;;;;;;13.48;7.93;;;-3.80;99.90;;;;;;494013;237;26505;-71
2023/12/04 03:13:02;;;;;;;12.90;8.40;;;-3.80;99.90;;;;;;493974;241;27173;-71
2023/12/04 03:15:05;;;;;;;11.90;7.40;;;-3.90;99.90;;;;;;493983;241;27265;-72
2023/12/04 03:17:06;;;;;;;9.02;6.82;;;;;;;;;;493966;241;27509;-72
2023/12/04 03:19:07;;;;;;;10.90;7.32;;;-3.80;99.90;;;;;;494021;241;26737;-72
2023/12/04 03:21:08;;;;;;;11.05;7.53;;;-3.80;99.90;;;;;;494032;241;27268;-71
2023/12/04 03:23:11;;;;;;;12.75;8.35;;;;;;;;;;494046;241;27006;-71
2023/12/04 03:25:12;;;;;;;10.60;6.97;;;-3.80;99.90;;;;;;494024;241;27135;-72
2023/12/04 03:27:15;;;;;;;12.48;7.75;;;;;;;;;;494037;241;27066;-72
2023/12/04 03:29:16;;;;;;;12.10;7.30;;;-3.80;99.90;;;;;;494057;241;26881;-71
2023/12/04 03:31:17;;;;;;;9.60;6.37;;;-3.70;99.90;;;;;;493998;241;27149;-72
2023/12/04 03:33:18;;;;;;;10.00;6.28;;;-3.70;99.90;;;;;;494034;241;27893;-72
2023/12/04 03:35:21;;;;;;;9.35;6.85;;;;;;;;;;493977;241;27661;-73
2023/12/04 03:37:22;;;;;;;10.55;7.55;;;-3.70;99.90;;;;;;493988;241;26656;-72
2023/12/04 03:39:25;;;;;;;11.20;7.32;;;;;;;;;;493999;241;27162;-75
2023/12/04 03:41:27;;;;;;;12.85;7.90;;;;;;;;;;493995;241;26621;-72
2023/12/04 03:43:28;;;;;;;10.05;7.32;;;-3.80;99.90;;;;;;494015;241;27330;-72
2023/12/04 03:45:31;;;;;;;9.23;6.40;;;;;;;;;;493824;241;27755;-71
2023/12/04 03:47:32;;;;;;;13.43;8.20;;;-3.80;99.90;;;;;;493990;241;26617;-72
2023/12/04 03:49:34;;;;;;;11.45;6.57;;;;;;;;;;494017;241;27184;-71
2023/12/04 03:51:35;;;;;;;9.95;7.00;;;-3.80;99.90;;;;;;493993;241;26625;-72
2023/12/04 03:53:38;;;;;;;8.80;6.30;;;;;;;;;;494045;237;27267;-72
2023/12/04 03:55:40;;;;;;;10.20;6.05;;;;;;;;;;494013;241;27135;-72
2023/12/04 03:57:42;;;;;;;9.68;6.87;;;-3.60;99.90;;;;;;493986;241;26648;-72
2023/12/04 03:59:45;;;;;;;7.60;6.68;;;;;;;;;;494046;241;27056;-71
2023/12/04 04:01:47;;;;;;;11.32;7.30;;;;;;;;;;493988;241;26657;-72
2023/12/04 04:03:48;;;;;;;11.82;7.45;;;-3.60;99.90;;;;;;493994;241;26724;-72
2023/12/04 04:05:49;;;;;;;11.07;6.70;;;-3.70;99.90;;;;;;493979;241;27725;-72
2023/12/04 04:07:50;;;;;;;8.48;6.25;;;-3.70;99.90;;;;;;494006;241;27600;-72
2023/12/04 04:09:52;;;;;;;11.75;7.15;;;-3.70;99.90;;;;;;494091;241;27123;-72
2023/12/04 04:11:53;;;;;;;13.10;7.90;;;-3.60;99.90;;;;;;494051;241;27017;-72
2023/12/04 04:13:54;;;;;;;11.05;7.28;;;-3.70;99.90;;;;;;493993;241;27304;-72
2023/12/04 04:15:55;;;;;;;10.90;7.05;;;-3.70;99.90;;;;;;494016;241;27203;-72
2023/12/04 04:17:57;;;;;;;13.05;7.80;;;-3.70;99.90;;;;;;493981;241;27160;-72
2023/12/04 04:19:58;;;;;;;13.60;8.23;;;-3.70;99.90;;;;;;494004;241;27172;-72
2023/12/04 04:21:59;;;;;;;14.63;7.15;;;-3.80;99.90;;;;;;494024;241;27499;-72
2023/12/04 04:24:02;;;;;;;12.27;7.32;;;;;;;;;;494010;241;27491;-72
2023/12/04 04:26:04;;;;;;;10.85;7.40;;;;;;;;;;493971;241;26616;-72
2023/12/04 04:28:06;;;;;;;13.55;8.02;;;;;;;;;;493983;241;26589;-71
2023/12/04 04:30:08;;;;;;;11.77;8.13;;;-4.00;99.90;;;;;;494044;241;26657;-74
2023/12/04 04:32:09;;;;;;;10.70;7.53;;;-3.90;99.90;;;;;;493976;241;27745;-72
2023/12/04 04:34:10;;;;;;;10.00;6.30;;;-3.90;99.90;;;;;;493992;241;27699;-72
2023/12/04 04:36:11;;;;;;;12.98;8.23;;;-3.80;99.90;;;;;;494043;241;27059;-72
2023/12/04 04:38:13;;;;;;;13.25;8.60;;;-3.70;99.90;;;;;;494010;241;27120;-72
2023/12/04 04:40:15;;;;;;;12.05;8.27;;;;;;;;;;493990;241;27495;-71
2023/12/04 04:42:16;;;;;;;12.90;8.60;;;-3.60;99.90;;;;;;494023;239;27217;-72
2023/12/04 04:44:18;;;;;;;10.75;7.60;;;-3.40;99.90;;;;;;493968;241;27193;-73
2023/12/04 04:46:19;;;;;;;11.70;7.47;;;-3.40;99.90;;;;;;493936;241;27042;-71
2023/12/04 04:48:21;;;;;;;9.48;7.00;;;;;;;;;;493979;241;27302;-72
2023/12/04 04:50:22;;;;;;;11.40;7.20;;;-3.50;99.90;;;;;;493980;241;28217;-72
2023/12/04 04:52:24;;;;;;;13.05;7.82;;;-3.50;99.90;;;;;;494061;241;27294;-73
2023/12/04 04:54:25;;;;;;;11.48;6.90;;;-3.50;99.90;;;;;;493993;241;27176;-72
2023/12/04 04:56:26;;;;;;;11.80;7.28;;;-3.50;99.90;;;;;;493989;241;27200;-72
2023/12/04 04:58:28;;;;;;;13.68;8.40;;;-3.60;99.90;;;;;;493988;241;27029;-71
2023/12/04 05:00:29;;;;;;;11.35;7.32;;;-3.50;99.90;;;;;;494047;241;27154;-71
2023/12/04 05:02:31;;;;;;;11.52;7.03;;;;;;;;;;494080;241;27755;-72
2023/12/04 05:04:32;;;;;;;11.12;7.15;;;-3.70;99.90;;;;;;494036;241;26681;-72
2023/12/04 05:06:34;;;;;;;11.75;8.23;;;-3.60;99.90;;;;;;493941;241;27064;-72
2023/12/04 05:08:35;;;;;;;17.67;10.25;;;-3.70;99.90;;;;;;493990;241;27154;-72
2023/12/04 05:10:36;;;;;;;48.92;25.30;;;-3.70;99.90;;;;;;493975;241;27192;-73
2023/12/04 05:12:37;;;;;;;99.05;68.82;;;-3.60;99.90;;;;;;494017;241;27662;-72
2023/12/04 05:14:39;;;;;;;46.85;32.42;;;-3.50;99.90;;;;;;494018;239;27184;-71
2023/12/04 05:16:41;;;;;;;30.90;18.15;;;;;;;;;;494067;241;27111;-72
2023/12/04 05:18:42;;;;;;;21.92;14.10;;;-3.40;99.90;;;;;;494049;241;27214;-73
2023/12/04 05:20:44;;;;;;;25.55;15.00;;;-3.40;99.90;;;;;;493977;241;27552;-71
2023/12/04 05:22:45;;;;;;;19.02;11.18;;;-3.20;99.90;;;;;;494020;241;27281;-72
2023/12/04 05:24:46;;;;;;;20.05;12.80;;;-3.20;99.90;;;;;;494067;241;27279;-73
2023/12/04 05:26:47;;;;;;;21.92;9.65;;;-3.10;99.90;;;;;;494027;241;27144;-72
2023/12/04 05:28:49;;;;;;;13.32;9.05;;;-3.10;99.90;;;;;;493952;241;27173;-72
2023/12/04 05:30:50;;;;;;;15.50;9.88;;;-3.00;99.90;;;;;;493985;241;27247;-71
2023/12/04 05:32:51;;;;;;;13.55;9.07;;;-2.90;99.90;;;;;;493998;241;27686;-72
2023/12/04 05:34:54;;;;;;;17.17;9.55;;;;;;;;;;493980;241;27669;-72
2023/12/04 05:36:55;;;;;;;12.10;9.00;;;-2.80;99.90;;;;;;493999;241;26647;-72
2023/12/04 05:38:56;;;;;;;9.57;7.32;;;-2.70;99.90;;;;;;493981;241;27345;-76
2023/12/04 05:40:57;;;;;;;11.68;8.00;;;-2.70;99.90;;;;;;494059;241;27801;-72
2023/12/04 05:42:59;;;;;;;13.60;9.18;;;-2.70;99.90;;;;;;494077;241;27796;-73
2023/12/04 05:45:00;;;;;;;13.20;8.68;;;-2.70;99.90;;;;;;494070;241;27041;-71
2023/12/04 05:47:01;;;;;;;14.75;8.85;;;-2.60;99.90;;;;;;494043;241;27340;-71
2023/12/04 05:49:02;;;;;;;17.60;10.32;;;-2.60;99.90;;;;;;494007;241;27213;-75
2023/12/04 05:51:04;;;;;;;12.65;8.38;;;-2.60;99.90;;;;;;493961;241;27252;-71
2023/12/04 05:53:05;;;;;;;15.68;10.52;;;-2.60;99.90;;;;;;493876;241;27261;-72
2023/12/04 05:55:06;;;;;;;17.55;10.90;;;-2.50;99.90;;;;;;493882;241;27821;-72
2023/12/04 05:57:08;;;;;;;14.05;9.57;;;-2.50;99.90;;;;;;494037;241;27912;-71
2023/12/04 05:59:09;;;;;;;20.88;12.48;;;-2.50;99.90;;;;;;494021;241;27414;-74
2023/12/04 06:01:10;;;;;;;14.65;9.20;;;-2.40;99.90;;;;;;493992;241;27247;-72
2023/12/04 06:03:11;;;;;;;16.05;9.75;;;-2.40;99.90;;;;;;493920;241;27378;-72
2023/12/04 06:05:13;;;;;;;14.70;8.48;;;-2.40;99.90;;;;;;493954;241;27301;-73
2023/12/04 06:07:14;;;;;;;10.35;7.75;;;-2.30;99.90;;;;;;493953;241;27463;-72
2023/12/04 06:09:18;;;;;;;10.95;7.62;;;-2.30;99.90;;;;;;493998;241;27424;-72
2023/12/04 06:11:19;;;;;;;10.35;7.40;;;-2.20;99.90;;;;;;493969;241;27505;-72
2023/12/04 06:13:20;;;;;;;10.75;7.15;;;-2.20;99.90;;;;;;493978;241;27471;-72
2023/12/04 06:15:22;;;;;;;12.05;7.05;;;-2.10;99.90;;;;;;493990;241;27608;-72
2023/12/04 06:17:23;;;;;;;12.95;7.55;;;-2.10;99.90;;;;;;493979;241;27413;-72
2023/12/04 06:19:24;;;;;;;9.77;7.50;;;-2.10;99.90;;;;;;493969;241;28004;-72
2023/12/04 06:21:25;;;;;;;10.20;7.50;;;-2.10;99.90;;;;;;494051;241;28033;-72
2023/12/04 06:23:27;;;;;;;11.43;8.02;;;-2.20;99.90;;;;;;494040;241;27872;-73
2023/12/04 06:25:28;;;;;;;11.82;7.87;;;-2.20;99.90;;;;;;494066;241;27465;-72
2023/12/04 06:27:29;;;;;;;11.55;7.97;;;-2.20;99.90;;;;;;493948;239;27452;-72
2023/12/04 06:29:31;;;;;;;14.95;7.80;;;-2.30;99.90;;;;;;493978;241;27480;-72
2023/12/04 06:31:32;;;;;;;13.85;7.30;;;-2.40;99.90;;;;;;494037;241;27459;-72
2023/12/04 06:33:33;;;;;;;11.18;7.37;;;-2.50;99.90;;;;;;494072;241;27412;-74
2023/12/04 06:35:35;;;;;;;9.98;6.80;;;-2.60;99.90;;;;;;493977;241;27810;-72
2023/12/04 06:37:36;;;;;;;10.15;6.97;;;-2.60;99.90;;;;;;493975;241;27770;-72
2023/12/04 06:39:37;;;;;;;11.25;7.00;;;-2.70;99.90;;;;;;493968;241;27240;-72
2023/12/04 06:41:38;;;;;;;8.38;6.25;;;-2.70;99.90;;;;;;493964;241;27572;-72
2023/12/04 06:43:39;;;;;;;10.13;6.93;;;-2.70;99.90;;;;;;493858;241;27343;-74
2023/12/04 06:45:41;;;;;;;12.48;7.47;;;-2.70;99.90;;;;;;493976;241;27609;-72
2023/12/04 06:47:42;;;;;;;8.13;7.03;;;-2.70;99.90;;;;;;493964;241;27481;-71
2023/12/04 06:49:43;;;;;;;9.23;6.70;;;-2.70;99.90;;;;;;494066;241;27296;-72
2023/12/04 06:51:44;;;;;;;9.65;6.72;;;-2.60;99.90;;;;;;494084;241;27347;-72
2023/12/04 06:53:46;;;;;;;9.80;7.03;;;-2.60;99.90;;;;;;494015;241;27555;-72
2023/12/04 06:55:47;;;;;;;9.70;7.25;;;-2.50;99.90;;;;;;493988;241;29060;-71
2023/12/04 06:57:48;;;;;;;11.65;8.05;;;-2.50;99.90;;;;;;493990;241;27367;-71
2023/12/04 06:59:49;;;;;;;8.68;6.80;;;-2.50;99.90;;;;;;494040;241;27543;-73
2023/12/04 07:01:51;;;;;;;12.07;7.32;;;-2.50;99.90;;;;;;494019;241;27510;-72
2023/12/04 07:03:52;;;;;;;11.32;7.68;;;-2.50;99.90;;;;;;494049;238;27476;-72
2023/12/04 07:05:53;;;;;;;12.43;8.48;;;-2.50;99.90;;;;;;494074;241;27356;-72
2023/12/04 07:07:54;;;;;;;12.02;7.40;;;-2.40;99.90;;;;;;494046;241;27422;-71
2023/12/04 07:09:56;;;;;;;12.73;6.05;;;-2.40;99.90;;;;;;493914;241;28182;-73
2023/12/04 07:11:57;;;;;;;8.80;6.87;;;-2.50;99.90;;;;;;494117;241;27925;-71
2023/12/04 07:13:58;;;;;;;9.27;7.00;;;-2.50;99.90;;;;;;494030;241;27995;-72
2023/12/04 07:15:59;;;;;;;9.70;7.50;;;-2.40;99.90;;;;;;493966;241;27493;-71
2023/12/04 07:18:01;;;;;;;10.18;6.68;;;-2.40;99.90;;;;;;494101;241;27380;-72
2023/12/04 07:20:02;;;;;;;9.40;7.10;;;-2.30;99.90;;;;;;494105;241;27286;-72
2023/12/04 07:22:03;;;;;;;9.20;6.60;;;-2.30;99.90;;;;;;494075;241;27785;-72
2023/12/04 07:24:05;;;;;;;11.00;6.45;;;-2.40;99.90;;;;;;494016;237;27520;-72
2023/12/04 07:26:06;;;;;;;7.93;6.30;;;-2.40;99.90;;;;;;494105;241;27405;-73
2023/12/04 07:28:07;;;;;;;9.10;6.90;;;-2.40;99.90;;;;;;493972;241;27918;-72
2023/12/04 07:30:08;;;;;;;11.80;8.38;;;-2.30;99.90;;;;;;493992;238;27957;-72
2023/12/04 07:32:09;;;;;;;9.00;7.22;;;-2.30;99.90;;;;;;493966;241;27922;-72
2023/12/04 07:34:11;;;;;;;11.85;8.80;;;-2.20;99.90;;;;;;494027;241;27472;-71
2023/12/04 07:36:12;;;;;;;12.88;9.73;;;-2.10;99.90;;;;;;494025;241;27384;-74
2023/12/04 07:38:13;;;;;;;10.10;8.10;;;-2.10;99.90;;;;;;493982;241;27444;-72
2023/12/04 07:40:15;;;;;;;9.00;8.10;;;-2.00;99.90;;;;;;494025;241;27404;-72
2023/12/04 07:42:16;;;;;;;10.38;7.80;;;-2.00;99.90;;;;;;494036;241;27514;-73
2023/12/04 07:44:17;;;;;;;11.80;7.65;;;-1.90;99.90;;;;;;494019;241;27491;-72
2023/12/04 07:46:18;;;;;;;8.32;6.95;;;-1.90;99.90;;;;;;494066;237;27992;-72
2023/12/04 07:48:19;;;;;;;8.40;6.65;;;-1.80;99.90;;;;;;494082;241;29134;-72
2023/12/04 07:50:21;;;;;;;8.50;6.72;;;-1.70;99.90;;;;;;493979;241;27982;-72
2023/12/04 07:52:22;;;;;;;7.00;5.72;;;-1.60;99.90;;;;;;493985;241;27551;-74
2023/12/04 07:54:25;;;;;;;12.68;8.43;;;-1.50;99.90;;;;;;494006;241;27454;-72
2023/12/04 07:56:25;;;;;;;16.23;10.80;;;-1.50;99.90;;;;;;493804;241;27514;-73
2023/12/04 07:58:26;;;;;;;16.27;10.32;;;-1.60;99.90;;;;;;494077;241;27413;-72
2023/12/04 08:00:27;;;;;;;18.30;10.30;;;-1.60;99.90;;;;;;494057;241;27474;-73
2023/12/04 08:02:28;;;;;;;21.90;10.30;;;-1.60;99.90;;;;;;494041;241;27956;-72
2023/12/04 08:04:30;;;;;;;17.48;9.65;;;-1.60;99.90;;;;;;494071;241;27925;-74
2023/12/04 08:06:31;;;;;;;14.98;8.98;;;-1.60;99.90;;;;;;494077;241;27467;-72
2023/12/04 08:08:32;;;;;;;13.88;9.43;;;-1.60;99.90;;;;;;494070;241;27489;-72
2023/12/04 08:10:33;;;;;;;13.55;8.75;;;-1.50;99.90;;;;;;493971;241;27469;-72
2023/12/04 08:12:35;;;;;;;13.62;8.90;;;-1.40;99.90;;;;;;493987;241;27523;-72
2023/12/04 08:14:36;;;;;;;10.30;7.65;;;-1.30;99.90;;;;;;493984;241;27516;-72
2023/12/04 08:16:37;;;;;;;12.60;8.13;;;-1.30;99.90;;;;;;494072;241;27990;-73
2023/12/04 08:18:38;;;;;;;11.60;8.00;;;-1.20;99.90;;;;;;494086;241;28028;-74
2023/12/04 08:20:40;;;;;;;8.45;6.70;;;-1.20;99.90;;;;;;494002;241;28041;-72
2023/12/04 08:22:41;;;;;;;11.02;7.97;;;-1.10;99.90;;;;;;494008;241;27489;-72
2023/12/04 08:24:42;;;;;;;9.70;7.12;;;-1.10;99.90;;;;;;494060;241;27474;-71
2023/12/04 08:26:43;;;;;;;10.05;7.25;;;-1.10;99.90;;;;;;494084;239;27552;-72
2023/12/04 08:28:45;;;;;;;11.45;6.60;;;-1.10;99.90;;;;;;494114;241;27514;-73
2023/12/04 08:30:46;;;;;;;10.30;6.97;;;-1.10;99.90;;;;;;494082;241;27526;-74
2023/12/04 08:32:47;;;;;;;10.20;6.68;;;-1.10;99.90;;;;;;494045;241;27539;-72
2023/12/04 08:34:48;;;;;;;8.20;5.80;;;-1.00;99.90;;;;;;494000;241;28067;-72
2023/12/04 08:36:50;;;;;;;9.25;6.70;;;-0.90;99.90;;;;;;494024;241;27932;-73
2023/12/04 08:38:51;;;;;;;10.88;6.60;;;-0.80;99.90;;;;;;493985;241;27589;-73
2023/12/04 08:40:52;;;;;;;8.07;6.20;;;-0.70;99.90;;;;;;493958;241;27458;-73
2023/12/04 08:42:53;;;;;;;9.00;6.50;;;-0.70;99.90;;;;;;494054;241;27497;-73
2023/12/04 08:44:55;;;;;;;10.07;6.00;;;-0.70;99.90;;;;;;494016;241;27517;-75
2023/12/04 08:46:57;;;;;;;11.12;7.35;;;-0.70;99.90;;;;;;493996;241;27635;-72
2023/12/04 08:48:57;;;;;;;7.87;6.03;;;-0.80;99.90;;;;;;493982;241;27500;-73
2023/12/04 08:50:58;;;;;;;8.80;6.82;;;-0.80;99.90;;;;;;493974;241;27938;-72
2023/12/04 08:53:01;;;;;;;9.27;7.00;;;-0.80;99.90;;;;;;494053;241;28111;-74
2023/12/04 08:55:01;;;;;;;10.40;7.62;;;-0.80;99.90;;;;;;493998;237;29153;-73
2023/12/04 08:57:02;;;;;;;8.00;6.00;;;-0.80;99.90;;;;;;494034;241;27496;-72
2023/12/04 08:59:03;;;;;;;10.65;6.95;;;-0.70;99.90;;;;;;494099;241;27506;-72
2023/12/04 09:01:05;;;;;;;9.50;7.00;;;-0.70;99.90;;;;;;494087;241;27496;-72
2023/12/04 09:03:06;;;;;;;8.45;6.50;;;-0.80;99.90;;;;;;494099;241;27528;-72
2023/12/04 09:05:08;;;;;;;10.10;6.35;;;-0.80;99.90;;;;;;493973;241;27635;-73
2023/12/04 09:07:09;;;;;;;8.60;6.35;;;-0.70;99.90;;;;;;494008;241;27538;-73
2023/12/04 09:09:11;;;;;;;9.48;6.72;;;-0.70;99.90;;;;;;493868;241;27646;-72
2023/12/04 09:11:11;;;;;;;8.10;6.15;;;-0.70;99.90;;;;;;494019;241;28003;-74
2023/12/04 09:13:12;;;;;;;7.82;6.65;;;-0.70;99.90;;;;;;494002;241;29015;-73
2023/12/04 09:15:13;;;;;;;9.02;6.47;;;-0.60;99.90;;;;;;493999;241;27506;-73
2023/12/04 09:17:16;;;;;;;8.98;6.20;;;-0.60;99.90;;;;;;494065;241;27456;-72
2023/12/04 09:19:16;;;;;;;6.47;5.53;;;-0.50;99.90;;;;;;493939;241;27510;-72
2023/12/04 09:21:17;;;;;;;6.57;5.80;;;-0.50;99.90;;;;;;494015;241;27517;-73
2023/12/04 09:23:18;;;;;;;8.80;6.00;;;-0.50;99.90;;;;;;493994;241;27481;-72
2023/12/04 09:25:20;;;;;;;7.53;5.78;;;-0.40;99.90;;;;;;493983;241;27506;-73
2023/12/04 09:27:21;;;;;;;7.87;5.28;;;-0.20;99.90;;;;;;493979;241;27462;-72
2023/12/04 09:29:23;;;;;;;6.32;4.53;;;-0.10;99.90;;;;;;494005;241;27460;-73
2023/12/04 09:31:24;;;;;;;5.12;4.55;;;0.00;99.90;;;;;;493934;241;28751;-72
2023/12/04 09:33:25;;;;;;;4.80;4.12;;;0.10;99.90;;;;;;494014;241;27894;-72
2023/12/04 09:35:26;;;;;;;5.22;4.62;;;0.10;99.90;;;;;;493964;241;28036;-73
2023/12/04 09:37:27;;;;;;;4.90;3.90;;;0.10;99.90;;;;;;494047;241;27522;-73
2023/12/04 09:39:29;;;;;;;8.43;4.80;;;0.10;99.90;;;;;;493991;241;27465;-72
2023/12/04 09:41:30;;;;;;;4.30;3.90;;;0.10;99.90;;;;;;493950;241;27508;-73
2023/12/04 09:43:31;;;;;;;5.05;4.12;;;0.20;99.90;;;;;;493991;241;27461;-73
2023/12/04 09:45:32;;;;;;;8.82;4.15;;;0.10;99.90;;;;;;493977;241;27489;-73
2023/12/04 09:47:34;;;;;;;4.45;3.65;;;0.10;99.90;;;;;;493999;241;27548;-74
2023/12/04 09:49:35;;;;;;;4.15;3.37;;;0.10;99.90;;;;;;494023;241;27466;-73
2023/12/04 09:51:36;;;;;;;4.68;4.12;;;0.20;99.90;;;;;;494009;241;27616;-73
2023/12/04 09:53:37;;;;;;;5.35;4.10;;;0.20;99.90;;;;;;493967;241;27560;-73
2023/12/04 09:55:39;;;;;;;4.80;4.30;;;0.20;99.90;;;;;;493989;241;27574;-72
2023/12/04 09:57:40;;;;;;;5.35;4.35;;;0.20;99.90;;;;;;493973;241;27534;-74
2023/12/04 09:59:41;;;;;;;5.10;4.45;;;0.30;99.90;;;;;;494016;241;27543;-72
2023/12/04 10:01:42;;;;;;;4.87;3.75;;;0.30;99.90;;;;;;493984;241;27502;-72
2023/12/04 10:03:44;;;;;;;4.97;4.35;;;0.30;99.90;;;;;;494005;241;27494;-75
2023/12/04 10:05:48;;;;;;;5.80;4.10;;;0.30;99.90;;;;;;493982;241;27476;-72
2023/12/04 10:07:46;;;;;;;5.80;4.53;;;0.30;99.90;;;;;;493804;241;28133;-73
2023/12/04 10:09:47;;;;;;;5.90;3.47;;;0.30;99.90;;;;;;494046;241;27943;-73
2023/12/04 10:11:49;;;;;;;5.15;4.00;;;0.30;99.90;;;;;;493975;241;28103;-73
2023/12/04 10:13:50;;;;;;;5.15;3.75;;;0.40;99.90;;;;;;494056;241;28137;-73
2023/12/04 10:15:51;;;;;;;7.22;4.40;;;0.40;99.90;;;;;;494009;241;27475;-72
2023/12/04 10:17:54;;;;;;;5.37;3.65;;;0.40;99.90;;;;;;493992;241;27593;-73
2023/12/04 10:19:54;;;;;;;5.37;3.22;;;0.40;99.90;;;;;;493975;241;27566;-72
2023/12/04 10:21:55;;;;;;;5.55;4.00;;;0.50;99.90;;;;;;494086;241;27498;-72
2023/12/04 10:23:56;;;;;;;5.05;4.28;;;0.50;99.90;;;;;;494117;241;27527;-74
2023/12/04 10:25:57;;;;;;;4.35;3.95;;;0.50;99.90;;;;;;494129;241;27477;-73
2023/12/04 10:27:59;;;;;;;5.45;4.03;;;0.50;99.90;;;;;;494086;241;27514;-74
2023/12/04 10:30:00;;;;;;;4.60;4.00;;;0.50;99.90;;;;;;493942;241;27462;-71
2023/12/04 10:32:01;;;;;;;4.75;4.10;;;0.50;99.90;;;;;;494024;241;27463;-72